Time;durP1;ratioP1;P1;durP2;ratioP2;P2;SDS_P1;SDS_P2;PMS_P1;PMS_P2;Temp;Humidity;BMP_temperature;BMP_pressure;BME280_temperature;BME280_humidity;BME280_pressure;Samples;Min_cycle;Max_cycle;Signal;HPM_P1;HPM_P2
2022/10/29 00:00:51;;;;;;;4.97;3.15;;;;;;;22.31;64.83;99744.25;2076259;28;20053;-50
2022/10/29 00:01:52;;;;;;;4.90;2.88;;;;;;;22.30;64.85;99746.13;2074525;28;20056;-51
2022/10/29 00:02:54;;;;;;;5.03;3.30;;;;;;;22.30;64.96;99738.03;2076648;28;20563;-49
2022/10/29 00:03:56;;;;;;;6.00;3.40;;;;;;;22.29;64.80;99740.94;2075434;28;20526;-54
2022/10/29 00:04:56;;;;;;;4.75;2.80;;;;;;;22.28;64.82;99737.38;2073737;28;20053;-52
2022/10/29 00:06:00;;;;;;;6.78;3.30;;;;;;;22.29;64.49;99730.13;2074311;28;20057;-50
2022/10/29 00:07:01;;;;;;;3.22;2.90;;;;;;;22.29;64.82;99732.84;2076247;28;20053;-54
2022/10/29 00:08:03;;;;;;;5.45;3.15;;;;;;;22.32;64.75;99734.31;2074426;28;20060;-51
2022/10/29 00:09:04;;;;;;;5.68;3.30;;;;;;;22.32;64.66;99735.13;2076232;28;20054;-54
2022/10/29 00:10:07;;;;;;;6.20;3.53;;;;;;;22.29;64.73;99730.97;2075467;28;20042;-49
2022/10/29 00:11:10;;;;;;;5.68;3.50;;;;;;;22.28;64.84;99731.97;2076202;28;20046;-48
2022/10/29 00:12:13;;;;;;;4.20;3.20;;;;;;;22.29;64.86;99730.13;2076465;28;20049;-54
2022/10/29 00:13:14;;;;;;;3.03;2.55;;;;;;;22.30;64.76;99727.22;2075102;28;20052;-48
2022/10/29 00:14:16;;;;;;;6.97;3.40;;;;;;;22.29;64.76;99735.53;2076041;28;21032;-55
2022/10/29 00:15:17;;;;;;;3.45;2.67;;;;;;;22.28;64.71;99734.69;2076849;28;20037;-54
2022/10/29 00:16:21;;;;;;;3.83;3.22;;;;;;;22.27;64.85;99735.72;2075100;28;20052;-52
2022/10/29 00:17:22;;;;;;;7.78;3.88;;;;;;;22.28;64.96;99731.16;2075534;28;20045;-51
2022/10/29 00:18:23;;;;;;;;;;;;;;;22.18;65.04;99725.28;2076064;28;20056;-49
2022/10/29 00:19:24;;;;;;;4.28;3.22;;;;;;;22.20;64.95;99732.16;2076147;28;19925;-51
2022/10/29 00:20:26;;;;;;;7.25;3.28;;;;;;;22.23;64.81;99726.38;2075525;28;20083;-55
2022/10/29 00:21:27;;;;;;;4.88;3.50;;;;;;;22.25;64.95;99729.69;2072921;28;20045;-51
2022/10/29 00:22:29;;;;;;;6.03;3.15;;;;;;;22.27;64.85;99729.50;2073302;28;20048;-53
2022/10/29 00:23:30;;;;;;;3.42;3.13;;;;;;;22.27;64.84;99726.78;2072068;28;20720;-51
2022/10/29 00:24:32;;;;;;;4.05;3.17;;;;;;;22.27;64.65;99722.22;2075477;28;20068;-53
2022/10/29 00:25:33;;;;;;;4.53;3.50;;;;;;;22.27;64.80;99730.31;2075300;28;20064;-50
2022/10/29 00:26:34;;;;;;;4.88;3.50;;;;;;;22.28;64.62;99733.84;2075378;28;20049;-54
2022/10/29 00:27:36;;;;;;;4.25;2.72;;;;;;;22.27;64.80;99733.03;2076378;28;20091;-52
2022/10/29 00:28:38;;;;;;;3.67;3.03;;;;;;;22.28;64.71;99726.56;2075650;28;20658;-48
2022/10/29 00:29:39;;;;;;;4.85;3.17;;;;;;;22.27;64.68;99733.03;2074322;28;21719;-51
2022/10/29 00:30:41;;;;;;;5.38;3.42;;;;;;;22.26;64.82;99725.97;2075996;28;20059;-53
2022/10/29 00:31:41;;;;;;;4.10;2.90;;;;;;;22.27;64.75;99724.09;2075039;28;20050;-55
2022/10/29 00:32:43;;;;;;;3.13;2.80;;;;;;;22.26;64.68;99725.13;2075497;28;20055;-52
2022/10/29 00:33:44;;;;;;;4.65;3.17;;;;;;;22.26;64.71;99725.13;2073935;28;20053;-55
2022/10/29 00:34:46;;;;;;;4.88;3.00;;;;;;;22.26;64.60;99723.25;2076023;28;20049;-51
2022/10/29 00:35:55;;;;;;;3.60;2.78;;;;;;;22.25;64.90;99726.16;2075759;28;20043;-49
2022/10/29 00:36:56;;;;;;;4.72;3.72;;;;;;;22.26;64.82;99725.13;2072613;28;20057;-51
2022/10/29 00:37:58;;;;;;;4.38;3.13;;;;;;;22.26;64.77;99725.13;2075797;28;20053;-52
2022/10/29 00:39:00;;;;;;;3.72;3.05;;;;;;;22.26;64.62;99725.97;2073036;28;20090;-53
2022/10/29 00:40:00;;;;;;;4.30;3.33;;;;;;;22.27;64.83;99732.19;2074180;28;20058;-55
2022/10/29 00:41:05;;;;;;;6.43;3.10;;;;;;;22.26;64.75;99723.25;2073595;28;20170;-49
2022/10/29 00:42:12;;;;;;;3.67;2.88;;;;;;;22.25;64.77;99724.28;2073655;28;20045;-49
2022/10/29 00:43:17;;;;;;;6.13;3.65;;;;;;;22.25;64.78;99723.44;2074776;28;20045;-50
2022/10/29 00:44:27;;;;;;;3.55;2.60;;;;;;;22.25;64.66;99720.75;2076295;28;20052;-48
2022/10/29 00:45:29;;;;;;;4.40;2.92;;;;;;;22.25;64.70;99726.16;2074330;28;20041;-55
2022/10/29 00:46:32;;;;;;;3.92;3.30;;;;;;;22.26;64.79;99725.13;2073489;28;20049;-51
2022/10/29 00:47:36;;;;;;;4.35;2.95;;;;;;;22.25;64.74;99718.03;2076578;28;20045;-51
2022/10/29 00:48:42;;;;;;;3.28;2.97;;;;;;;22.25;64.69;99726.97;2074045;28;20049;-53
2022/10/29 00:49:46;;;;;;;4.38;3.20;;;;;;;22.25;64.83;99729.69;2068390;28;20050;-55
2022/10/29 00:50:48;;;;;;;4.45;3.15;;;;;;;22.25;64.68;99729.69;2066924;28;20057;-54
2022/10/29 00:51:50;;;;;;;5.22;3.38;;;;;;;22.24;64.75;99727.19;2074817;28;20045;-52
2022/10/29 00:52:53;;;;;;;6.82;3.35;;;;;;;22.24;64.69;99727.19;2072739;28;20056;-49
2022/10/29 00:53:58;;;;;;;4.97;3.13;;;;;;;22.24;64.77;99716.38;2071176;28;20515;-50
2022/10/29 00:55:01;;;;;;;3.60;2.63;;;;;;;22.23;64.69;99717.41;2073922;28;20060;-50
2022/10/29 00:56:04;;;;;;;5.35;3.13;;;;;;;22.23;64.77;99720.97;2072166;28;20053;-51
2022/10/29 00:57:08;;;;;;;3.22;2.92;;;;;;;22.24;64.72;99710.97;2069863;28;20053;-48
2022/10/29 00:58:10;;;;;;;3.88;2.97;;;;;;;22.23;64.71;99709.28;2075411;28;20084;-50
2022/10/29 00:59:15;;;;;;;4.78;3.08;;;;;;;22.24;64.72;99714.50;2075936;28;20052;-54
2022/10/29 01:00:17;;;;;;;4.20;3.30;;;;;;;22.23;64.79;99706.59;2076282;28;20047;-51
2022/10/29 01:01:18;;;;;;;2.90;2.53;;;;;;;22.21;64.84;99717.63;2075205;28;20271;-52
2022/10/29 01:02:22;;;;;;;7.53;3.13;;;;;;;22.22;64.80;99715.75;2076476;28;20041;-50
2022/10/29 01:03:22;;;;;;;5.50;2.65;;;;;;;22.24;64.78;99719.09;2075966;28;20062;-50
2022/10/29 01:04:25;;;;;;;3.00;2.75;;;;;;;22.23;64.70;99714.69;2075654;28;20045;-50
2022/10/29 01:05:27;;;;;;;3.15;2.90;;;;;;;22.25;64.67;99718.03;2075072;28;20056;-49
2022/10/29 01:06:30;;;;;;;5.60;3.17;;;;;;;22.24;64.69;99717.22;2074762;28;20057;-52
2022/10/29 01:07:32;;;;;;;4.25;3.33;;;;;;;22.24;64.61;99716.38;2075338;28;20115;-51
2022/10/29 01:08:34;;;;;;;4.82;2.75;;;;;;;22.24;64.60;99710.97;2076470;28;20630;-49
2022/10/29 01:09:35;;;;;;;4.45;2.80;;;;;;;22.24;64.58;99711.81;2075658;28;20056;-52
2022/10/29 01:10:49;;;;;;;3.85;3.33;;;;;;;22.22;64.70;99708.47;2075923;28;20049;-53
2022/10/29 01:12:06;;;;;;;3.20;2.70;;;;;;;22.22;64.64;99718.44;2075061;28;20041;-54
2022/10/29 01:13:22;;;;;;;4.20;2.72;;;;;;;22.21;64.55;99716.78;2076679;28;20064;-51
2022/10/29 01:14:32;;;;;;;3.58;2.90;;;;;;;22.19;64.76;99713.44;2075402;28;20052;-52
2022/10/29 01:15:41;;;;;;;5.18;3.28;;;;;;;22.19;64.69;99713.44;2066373;28;20191;-51
2022/10/29 01:16:49;;;;;;;3.80;2.92;;;;;;;22.20;64.56;99712.41;2074236;28;20559;-57
2022/10/29 01:18:00;;;;;;;3.97;2.95;;;;;;;22.21;64.70;99711.38;2075926;28;20049;-53
2022/10/29 01:19:12;;;;;;;5.35;2.83;;;;;;;22.18;64.64;99707.22;2076201;28;20547;-51
2022/10/29 01:20:43;;;;;;;4.95;2.95;;;;;;;22.17;64.74;99710.91;2075060;28;20103;-52
2022/10/29 01:21:45;;;;;;;4.15;2.88;;;;;;;22.17;64.80;99705.50;2063923;28;20053;-52
2022/10/29 01:22:58;;;;;;;5.03;3.33;;;;;;;22.19;64.76;99708.88;2076522;28;20123;-51
2022/10/29 01:24:35;;;;;;;3.35;2.85;;;;;;;22.17;64.69;99712.78;2076180;28;20080;-50
2022/10/29 01:25:59;;;;;;;4.97;3.20;;;;;;;22.13;64.96;99706.13;2076181;28;20571;-48
2022/10/29 01:27:26;;;;;;;5.07;2.90;;;;;;;22.14;64.75;99705.91;2074921;28;20045;-50
2022/10/29 01:28:41;;;;;;;4.22;3.63;;;;;;;22.14;64.75;99705.91;2074961;28;20045;-52
2022/10/29 01:30:00;;;;;;;4.70;3.28;;;;;;;22.14;64.65;99705.06;2075459;28;20631;-53
2022/10/29 01:31:22;;;;;;;3.97;3.17;;;;;;;22.13;64.72;99706.13;2073903;28;20056;-52
2022/10/29 01:32:28;;;;;;;4.70;3.05;;;;;;;22.16;64.75;99703.84;2075969;28;20553;-49
2022/10/29 01:33:40;;;;;;;4.75;3.05;;;;;;;22.17;64.61;99708.19;2074387;28;20038;-51
2022/10/29 01:34:49;;;;;;;4.30;2.92;;;;;;;22.18;64.77;99711.78;2075370;28;20060;-49
2022/10/29 01:35:58;;;;;;;4.72;2.75;;;;;;;22.17;64.67;99705.50;2074451;28;20053;-50
2022/10/29 01:37:02;;;;;;;3.90;2.97;;;;;;;22.17;64.72;99708.19;2075716;28;20136;-52
2022/10/29 01:38:17;;;;;;;5.60;3.13;;;;;;;22.18;64.59;99714.50;2075321;28;20057;-52
2022/10/29 01:39:25;;;;;;;4.15;3.13;;;;;;;22.17;64.63;99704.66;2075579;28;20053;-50
2022/10/29 01:40:33;;;;;;;5.60;3.03;;;;;;;22.17;64.82;99704.66;2075677;28;20059;-49
2022/10/29 01:41:45;;;;;;;7.28;4.03;;;;;;;22.16;64.70;99703.00;2073856;28;20049;-49
2022/10/29 01:42:51;;;;;;;4.20;2.85;;;;;;;22.15;64.72;99695.91;2074386;28;20079;-54
2022/10/29 01:43:57;;;;;;;3.40;2.90;;;;;;;22.16;64.73;99703.00;2074685;28;20045;-51
2022/10/29 01:45:07;;;;;;;5.57;3.28;;;;;;;22.17;64.70;99704.66;2075879;28;20076;-53
2022/10/29 01:46:14;;;;;;;4.37;3.23;;;;;;;22.16;64.62;99703.00;2072976;28;20045;-51
2022/10/29 01:47:19;;;;;;;3.55;2.75;;;;;;;22.16;64.68;99703.84;2075527;28;20684;-51
2022/10/29 01:48:25;;;;;;;4.35;2.97;;;;;;;22.16;64.61;99697.59;2074550;28;20041;-52
2022/10/29 01:49:33;;;;;;;2.88;2.60;;;;;;;22.16;64.60;99703.84;2075148;28;20128;-53
2022/10/29 01:50:37;;;;;;;5.85;4.00;;;;;;;22.15;64.80;99702.19;2073437;28;20414;-49
2022/10/29 01:51:40;;;;;;;2.35;2.15;;;;;;;22.16;64.72;99703.00;2075510;28;20054;-51
2022/10/29 01:52:42;;;;;;;5.30;2.83;;;;;;;22.18;64.59;99700.97;2074745;28;20053;-50
2022/10/29 01:53:44;;;;;;;5.18;3.38;;;;;;;22.17;64.62;99699.25;2075648;28;20057;-50
2022/10/29 01:54:47;;;;;;;3.38;2.40;;;;;;;22.18;64.65;99695.56;2075367;28;20057;-52
2022/10/29 01:55:48;;;;;;;3.15;2.75;;;;;;;22.17;64.42;99694.69;2075476;28;20049;-49
2022/10/29 01:56:55;;;;;;;4.78;2.88;;;;;;;22.16;64.50;99687.63;2074820;28;20132;-51
2022/10/29 01:57:56;;;;;;;2.72;2.40;;;;;;;22.16;64.52;99684.91;2067715;28;20041;-50
2022/10/29 01:59:00;;;;;;;3.47;2.75;;;;;;;22.18;64.48;99695.56;2071221;28;20077;-52
2022/10/29 02:00:04;;;;;;;4.78;3.22;;;;;;;22.16;64.68;99684.09;2075182;28;20052;-52
2022/10/29 02:01:17;;;;;;;3.80;2.72;;;;;;;22.15;64.50;99685.97;2068648;28;20041;-52
2022/10/29 02:02:29;;;;;;;4.03;2.58;;;;;;;22.14;64.56;99688.84;2074087;28;20049;-50
2022/10/29 02:03:38;;;;;;;3.38;2.65;;;;;;;22.13;64.75;99681.78;2074789;28;20049;-50
2022/10/29 02:04:53;;;;;;;4.10;3.15;;;;;;;22.12;64.49;99680.13;2076259;28;20072;-50
2022/10/29 02:06:03;;;;;;;4.47;3.15;;;;;;;22.12;64.72;99686.38;2076797;28;20060;-51
2022/10/29 02:07:13;;;;;;;5.22;2.65;;;;;;;22.12;64.67;99685.50;2074830;28;20045;-50
2022/10/29 02:08:29;;;;;;;3.50;2.67;;;;;;;22.13;64.67;99681.78;2076827;28;20073;-49
2022/10/29 02:09:38;;;;;;;4.00;3.60;;;;;;;22.11;64.61;99678.44;2077525;28;20057;-52
2022/10/29 02:10:46;;;;;;;4.93;3.20;;;;;;;22.12;64.95;99672.88;2077298;28;20045;-49
2022/10/29 02:11:53;;;;;;;3.50;2.83;;;;;;;22.12;64.68;99675.56;2075633;28;20049;-50
2022/10/29 02:12:57;;;;;;;5.35;2.78;;;;;;;22.13;64.52;99673.69;2076460;28;20045;-51
2022/10/29 02:14:03;;;;;;;4.13;3.38;;;;;;;22.13;64.66;99668.28;2076738;28;20057;-50
2022/10/29 02:15:09;;;;;;;5.80;3.28;;;;;;;22.15;64.70;99666.19;2075611;28;20060;-50
2022/10/29 02:16:11;;;;;;;4.75;2.85;;;;;;;22.12;64.51;99664.75;2078009;28;20049;-52
2022/10/29 02:17:13;;;;;;;4.57;2.92;;;;;;;22.11;64.49;99670.34;2076495;28;20070;-51
2022/10/29 02:18:16;;;;;;;6.25;3.70;;;;;;;22.13;64.62;99665.59;2077794;28;20041;-50
2022/10/29 02:19:18;;;;;;;2.92;2.38;;;;;;;22.12;64.66;99669.31;2077284;28;20045;-52
2022/10/29 02:20:18;;;;;;;3.60;2.72;;;;;;;22.13;64.39;99658.31;2077689;28;20055;-49
2022/10/29 02:21:21;;;;;;;3.42;2.65;;;;;;;22.14;64.55;99662.66;2075379;28;20508;-51
2022/10/29 02:22:22;;;;;;;4.20;2.97;;;;;;;22.14;64.39;99657.25;2075828;28;20057;-50
2022/10/29 02:23:23;;;;;;;3.47;2.85;;;;;;;22.15;64.39;99663.50;2076530;28;20648;-51
2022/10/29 02:24:24;;;;;;;6.15;2.92;;;;;;;22.13;64.47;99654.78;2076263;28;20060;-52
2022/10/29 02:25:26;;;;;;;4.70;3.22;;;;;;;22.14;64.32;99657.25;2077238;28;20124;-50
2022/10/29 02:26:27;;;;;;;5.00;2.92;;;;;;;22.15;64.47;99663.50;2076907;28;20057;-49
2022/10/29 02:27:29;;;;;;;3.72;2.58;;;;;;;22.13;64.34;99657.47;2077050;28;20049;-48
2022/10/29 02:28:29;;;;;;;5.70;2.90;;;;;;;22.14;64.41;99659.13;2076984;28;21060;-50
2022/10/29 02:29:31;;;;;;;3.85;2.90;;;;;;;22.12;64.39;99648.53;2075958;28;20048;-51
2022/10/29 02:30:32;;;;;;;5.50;3.28;;;;;;;22.13;64.58;99652.91;2075735;28;20560;-51
2022/10/29 02:31:35;;;;;;;2.47;2.28;;;;;;;22.13;64.29;99652.91;2076422;28;20045;-49
2022/10/29 02:32:35;;;;;;;4.25;2.78;;;;;;;22.14;64.40;99645.63;2076360;28;20056;-52
2022/10/29 02:33:38;;;;;;;4.10;2.65;;;;;;;22.14;64.42;99645.63;2077486;28;20055;-50
2022/10/29 02:34:39;;;;;;;4.80;2.67;;;;;;;22.12;64.29;99642.28;2075656;28;20053;-51
2022/10/29 02:35:41;;;;;;;2.90;2.60;;;;;;;22.13;64.55;99649.38;2076871;28;20053;-50
2022/10/29 02:36:42;;;;;;;5.38;2.85;;;;;;;22.11;64.35;99644.16;2077232;28;20069;-52
2022/10/29 02:37:44;;;;;;;5.50;2.45;;;;;;;22.12;64.58;99643.16;2076313;28;20053;-49
2022/10/29 02:38:44;;;;;;;4.13;2.72;;;;;;;22.14;64.41;99648.31;2075756;28;20057;-52
2022/10/29 02:39:46;;;;;;;3.70;2.75;;;;;;;22.12;64.40;99642.28;2076208;28;20056;-49
2022/10/29 02:40:47;;;;;;;6.55;2.55;;;;;;;22.12;64.32;99640.44;2076762;28;20501;-50
2022/10/29 02:41:49;;;;;;;3.72;2.70;;;;;;;22.14;64.45;99640.22;2076562;28;20059;-49
2022/10/29 02:42:50;;;;;;;3.47;2.75;;;;;;;22.13;64.33;99641.28;2076602;28;20417;-49
2022/10/29 02:43:51;;;;;;;4.10;2.90;;;;;;;22.11;64.29;99633.34;2076511;28;20053;-49
2022/10/29 02:44:52;;;;;;;4.20;2.70;;;;;;;22.12;64.34;99640.44;2076788;28;20053;-50
2022/10/29 02:46:15;;;;;;;3.53;3.05;;;;;;;22.11;64.37;99635.22;2077285;28;20060;-50
2022/10/29 02:47:16;;;;;;;4.80;2.83;;;;;;;22.09;64.60;99636.28;2076614;28;20049;-49
2022/10/29 02:48:18;;;;;;;4.25;3.20;;;;;;;22.11;64.40;99635.22;2077166;28;20108;-51
2022/10/29 02:49:20;;;;;;;3.58;3.10;;;;;;;22.11;64.38;99630.66;2076394;28;20042;-50
2022/10/29 02:50:22;;;;;;;3.60;2.53;;;;;;;22.11;64.53;99629.81;2077180;28;20100;-50
2022/10/29 02:51:23;;;;;;;4.63;3.40;;;;;;;22.11;64.44;99629.81;2076455;28;20050;-51
2022/10/29 02:52:25;;;;;;;4.75;3.10;;;;;;;22.11;64.49;99629.81;2077461;28;20052;-51
2022/10/29 02:53:25;;;;;;;5.00;2.95;;;;;;;22.11;64.52;99625.25;2076904;28;20048;-51
2022/10/29 02:54:27;;;;;;;3.22;2.55;;;;;;;22.12;64.55;99623.38;2075913;28;20448;-50
2022/10/29 02:55:28;;;;;;;3.28;2.90;;;;;;;22.11;64.44;99629.81;2075736;28;20041;-50
2022/10/29 02:56:30;;;;;;;5.45;2.75;;;;;;;22.12;64.29;99626.06;2075984;28;20053;-52
2022/10/29 02:57:31;;;;;;;4.78;2.85;;;;;;;22.11;64.41;99619.00;2073625;28;20532;-50
2022/10/29 02:58:33;;;;;;;3.25;2.80;;;;;;;22.11;64.42;99619.84;2074763;28;20041;-50
2022/10/29 02:59:33;;;;;;;3.13;2.63;;;;;;;22.10;64.48;99615.50;2076017;28;20056;-50
2022/10/29 03:00:35;;;;;;;4.50;3.13;;;;;;;22.11;64.34;99630.66;2075495;28;20045;-49
2022/10/29 03:01:36;;;;;;;5.00;2.85;;;;;;;22.10;64.35;99629.00;2073411;28;20057;-50
2022/10/29 03:02:37;;;;;;;4.50;3.33;;;;;;;22.12;64.40;99626.06;2071459;28;20422;-51
2022/10/29 03:03:38;;;;;;;3.25;2.80;;;;;;;22.13;64.23;99625.06;2070482;28;20683;-51
2022/10/29 03:04:43;;;;;;;3.13;2.58;;;;;;;22.11;64.25;99624.41;2074423;28;20053;-51
2022/10/29 03:05:43;;;;;;;3.45;2.75;;;;;;;22.11;64.47;99630.66;2069208;28;20443;-51
2022/10/29 03:06:45;;;;;;;4.75;2.53;;;;;;;22.11;64.29;99624.41;2071450;28;20060;-51
2022/10/29 03:07:46;;;;;;;6.90;3.45;;;;;;;22.09;64.33;99625.47;2073592;28;20056;-51
2022/10/29 03:08:48;;;;;;;5.35;2.55;;;;;;;22.08;64.29;99623.78;2073460;28;20053;-52
2022/10/29 03:09:49;;;;;;;4.25;2.58;;;;;;;22.07;64.50;99619.44;2074480;28;20080;-53
2022/10/29 03:10:51;;;;;;;4.18;2.85;;;;;;;22.09;64.27;99624.59;2075658;28;20056;-50
2022/10/29 03:11:51;;;;;;;4.10;2.58;;;;;;;22.11;64.33;99627.13;2071613;28;20045;-52
2022/10/29 03:12:53;;;;;;;3.55;2.85;;;;;;;22.09;64.22;99622.75;2074200;28;20060;-50
2022/10/29 03:13:54;;;;;;;7.15;2.95;;;;;;;22.11;64.28;99622.53;2072688;28;20246;-52
2022/10/29 03:14:56;;;;;;;3.30;2.55;;;;;;;22.09;64.26;99620.06;2075404;28;20701;-52
2022/10/29 03:15:57;;;;;;;5.97;3.10;;;;;;;22.11;64.33;99624.41;2075294;28;20049;-50
2022/10/29 03:16:58;;;;;;;4.47;2.40;;;;;;;22.09;64.29;99627.31;2073999;28;20489;-49
2022/10/29 03:17:59;;;;;;;6.20;2.80;;;;;;;22.08;64.36;99621.06;2073439;28;20080;-50
2022/10/29 03:19:01;;;;;;;6.22;2.72;;;;;;;22.08;64.28;99626.47;2077277;28;20060;-51
2022/10/29 03:20:05;;;;;;;4.82;2.53;;;;;;;22.08;64.17;99618.38;2075082;28;20053;-51
2022/10/29 03:21:06;;;;;;;3.08;2.65;;;;;;;22.08;64.41;99626.47;2064303;28;20049;-50
2022/10/29 03:22:07;;;;;;;5.57;3.38;;;;;;;22.07;64.43;99627.53;2074130;28;20050;-50
2022/10/29 03:23:09;;;;;;;5.63;2.95;;;;;;;22.06;64.35;99625.88;2075726;28;20167;-53
2022/10/29 03:24:10;;;;;;;7.22;3.10;;;;;;;22.08;64.42;99631.06;2074899;28;20705;-52
2022/10/29 03:25:12;;;;;;;5.70;3.22;;;;;;;22.07;64.29;99627.53;2074565;28;20047;-52
2022/10/29 03:26:12;;;;;;;3.70;2.72;;;;;;;22.07;64.20;99627.53;2075840;28;20041;-50
2022/10/29 03:27:14;;;;;;;2.80;2.60;;;;;;;22.08;64.35;99629.19;2072915;28;20049;-49
2022/10/29 03:28:15;;;;;;;3.80;2.70;;;;;;;22.07;64.30;99632.09;2076437;28;20045;-52
2022/10/29 03:29:17;;;;;;;3.20;2.90;;;;;;;22.07;64.37;99627.53;2069551;28;20064;-51
2022/10/29 03:30:17;;;;;;;3.50;2.85;;;;;;;22.08;64.05;99631.88;2071367;28;20045;-51
2022/10/29 03:31:19;;;;;;;4.35;2.75;;;;;;;22.06;64.35;99628.56;2072906;28;20057;-52
2022/10/29 03:32:20;;;;;;;4.50;3.15;;;;;;;22.03;64.30;99631.66;2072357;28;20049;-50
2022/10/29 03:33:22;;;;;;;6.50;3.22;;;;;;;22.08;64.42;99633.75;2074485;28;20053;-50
2022/10/29 03:34:24;;;;;;;4.05;2.70;;;;;;;22.07;64.46;99629.41;2075440;28;20573;-50
2022/10/29 03:35:26;;;;;;;3.97;3.13;;;;;;;22.06;64.41;99633.97;2072637;28;20045;-51
2022/10/29 03:36:28;;;;;;;4.88;2.80;;;;;;;22.06;64.42;99636.69;2074346;28;20087;-52
2022/10/29 03:37:29;;;;;;;3.42;2.70;;;;;;;22.05;64.44;99637.69;2073920;28;20404;-49
2022/10/29 03:38:30;;;;;;;3.53;2.35;;;;;;;22.05;64.53;99640.41;2075583;28;20049;-50
2022/10/29 03:39:31;;;;;;;3.13;2.70;;;;;;;22.06;64.22;99644.78;2076397;28;20050;-48
2022/10/29 03:40:33;;;;;;;3.13;2.83;;;;;;;22.05;64.40;99632.28;2075373;28;20656;-51
2022/10/29 03:41:34;;;;;;;2.65;2.30;;;;;;;22.04;64.31;99633.34;2073746;28;20094;-50
2022/10/29 03:42:36;;;;;;;2.97;2.58;;;;;;;22.05;64.33;99643.09;2074967;28;20085;-53
2022/10/29 03:43:37;;;;;;;7.18;2.90;;;;;;;22.03;64.44;99642.47;2073059;28;20061;-50
2022/10/29 03:44:39;;;;;;;4.30;2.70;;;;;;;22.04;64.43;99643.31;2073861;28;20095;-51
2022/10/29 03:45:39;;;;;;;5.43;2.88;;;;;;;22.04;64.33;99644.16;2072838;28;20107;-49
2022/10/29 03:46:41;;;;;;;5.85;2.92;;;;;;;22.03;64.18;99634.34;2073461;28;20934;-48
2022/10/29 03:47:42;;;;;;;3.10;2.17;;;;;;;22.04;64.33;99646.84;2073706;28;20068;-50
2022/10/29 03:48:44;;;;;;;4.25;3.05;;;;;;;22.04;64.43;99641.44;2075947;28;20072;-50
2022/10/29 03:49:44;;;;;;;3.38;2.40;;;;;;;22.06;64.09;99642.09;2074501;28;20490;-49
2022/10/29 03:50:55;;;;;;;4.75;2.97;;;;;;;22.03;64.18;99647.88;2076059;28;20053;-50
2022/10/29 03:51:56;;;;;;;3.33;2.80;;;;;;;22.03;64.32;99641.63;2073268;28;20110;-52
2022/10/29 03:52:58;;;;;;;6.28;2.65;;;;;;;22.03;64.18;99645.16;2074219;28;20053;-50
2022/10/29 03:53:59;;;;;;;2.67;2.22;;;;;;;22.04;64.16;99640.63;2075047;28;20056;-50
2022/10/29 03:55:01;;;;;;;3.90;2.53;;;;;;;22.04;64.23;99646.84;2074154;28;20057;-50
2022/10/29 03:56:02;;;;;;;5.05;2.60;;;;;;;22.05;64.25;99650.38;2073120;28;20053;-51
2022/10/29 03:57:04;;;;;;;4.53;2.65;;;;;;;22.03;64.25;99636.22;2072683;28;20057;-52
2022/10/29 03:58:05;;;;;;;4.55;2.92;;;;;;;22.03;64.34;99644.34;2072904;28;20052;-50
2022/10/29 03:59:06;;;;;;;3.15;2.80;;;;;;;22.02;64.30;99638.09;2073347;28;20518;-50
2022/10/29 04:00:09;;;;;;;4.65;2.35;;;;;;;22.03;64.33;99641.63;2074630;28;20056;-51
2022/10/29 04:01:11;;;;;;;3.42;2.95;;;;;;;22.02;64.34;99648.91;2071944;28;20065;-50
2022/10/29 04:02:12;;;;;;;3.05;2.50;;;;;;;22.03;64.22;99637.06;2075388;28;20056;-49
2022/10/29 04:03:13;;;;;;;3.33;2.78;;;;;;;22.02;64.19;99638.09;2075755;28;20049;-51
2022/10/29 04:04:14;;;;;;;2.72;2.25;;;;;;;22.02;64.15;99638.09;2073274;28;20179;-49
2022/10/29 04:05:16;;;;;;;3.05;2.35;;;;;;;22.02;64.09;99640.81;2075795;28;20136;-49
2022/10/29 04:06:18;;;;;;;4.88;3.13;;;;;;;22.01;64.37;99636.44;2073401;28;20045;-50
2022/10/29 04:07:20;;;;;;;2.75;2.45;;;;;;;22.01;64.11;99641.84;2074210;28;20703;-50
2022/10/29 04:08:21;;;;;;;3.95;2.58;;;;;;;22.00;64.13;99642.88;2075148;28;20049;-50
2022/10/29 04:09:23;;;;;;;2.55;2.35;;;;;;;22.01;64.31;99641.03;2076568;28;20037;-51
2022/10/29 04:10:24;;;;;;;3.60;2.78;;;;;;;22.00;64.36;99642.88;2074740;28;20060;-48
2022/10/29 04:11:26;;;;;;;3.88;2.70;;;;;;;22.01;64.21;99633.75;2073919;28;20107;-51
2022/10/29 04:12:27;;;;;;;4.45;2.80;;;;;;;22.02;64.26;99642.69;2071440;28;20050;-51
2022/10/29 04:13:29;;;;;;;3.50;2.33;;;;;;;22.01;64.13;99636.44;2073739;28;20057;-50
2022/10/29 04:14:29;;;;;;;5.80;2.45;;;;;;;22.00;64.35;99640.16;2072827;28;20048;-52
2022/10/29 04:15:31;;;;;;;4.63;2.35;;;;;;;22.00;64.27;99640.16;2071227;28;20056;-52
2022/10/29 04:16:32;;;;;;;3.25;2.47;;;;;;;22.02;64.29;99637.28;2074583;28;20049;-52
2022/10/29 04:17:34;;;;;;;3.40;2.40;;;;;;;22.01;64.25;99644.56;2074910;28;20413;-49
2022/10/29 04:18:34;;;;;;;4.35;2.55;;;;;;;22.01;64.29;99646.44;2074326;28;20053;-50
2022/10/29 04:19:36;;;;;;;3.65;2.38;;;;;;;21.99;64.10;99646.63;2076705;28;20049;-49
2022/10/29 04:20:39;;;;;;;3.33;2.53;;;;;;;21.98;64.05;99644.97;2074951;28;20052;-49
2022/10/29 04:21:42;;;;;;;6.05;2.72;;;;;;;22.00;64.22;99650.97;2074269;28;20055;-52
2022/10/29 04:22:42;;;;;;;5.47;3.42;;;;;;;22.00;64.01;99656.38;2074036;28;20046;-51
2022/10/29 04:23:44;;;;;;;2.95;2.25;;;;;;;22.00;64.14;99650.13;2075564;28;20707;-51
2022/10/29 04:24:45;;;;;;;2.88;2.45;;;;;;;22.01;64.09;99649.13;2075190;28;20058;-50
2022/10/29 04:25:55;;;;;;;3.35;2.50;;;;;;;21.98;64.22;99646.78;2077266;28;20057;-49
2022/10/29 04:26:56;;;;;;;3.40;2.45;;;;;;;21.95;64.21;99650.72;2075761;28;20045;-50
2022/10/29 04:27:57;;;;;;;;;;;;;;;21.88;64.58;99649.88;2078152;28;20053;-51
2022/10/29 04:28:58;;;;;;;2.47;2.28;;;;;;;21.93;64.51;99660.09;2077075;28;19925;-50
2022/10/29 04:30:00;;;;;;;3.30;2.25;;;;;;;21.95;64.18;99650.72;2078494;28;20315;-49
2022/10/29 04:31:03;;;;;;;3.33;2.63;;;;;;;21.98;64.31;99657.59;2076044;28;20038;-50
2022/10/29 04:32:05;;;;;;;2.85;2.22;;;;;;;21.96;64.24;99649.72;2077326;28;20135;-49
2022/10/29 04:33:06;;;;;;;3.63;2.60;;;;;;;21.95;64.29;99648.03;2075005;28;20064;-51
2022/10/29 04:34:08;;;;;;;4.50;3.05;;;;;;;21.97;64.32;99645.97;2076015;28;21058;-52
2022/10/29 04:35:08;;;;;;;4.53;2.33;;;;;;;21.98;64.32;99650.34;2078348;28;20053;-49
2022/10/29 04:36:11;;;;;;;3.15;1.98;;;;;;;21.98;64.25;99646.78;2078838;28;20072;-49
2022/10/29 04:37:13;;;;;;;4.90;2.95;;;;;;;21.97;64.14;99647.84;2078663;28;20049;-49
2022/10/29 04:38:14;;;;;;;3.97;2.55;;;;;;;21.97;64.16;99643.28;2077975;28;20073;-49
2022/10/29 04:39:15;;;;;;;5.75;2.35;;;;;;;21.97;64.23;99651.38;2077598;28;20049;-48
2022/10/29 04:40:17;;;;;;;4.85;2.65;;;;;;;21.97;64.26;99651.38;2076337;28;20053;-48
2022/10/29 04:41:18;;;;;;;4.95;2.65;;;;;;;21.97;64.10;99643.28;2074703;28;20050;-49
2022/10/29 04:42:20;;;;;;;3.80;2.97;;;;;;;21.97;64.16;99645.97;2075349;28;20045;-52
2022/10/29 04:43:20;;;;;;;3.00;2.70;;;;;;;21.97;64.18;99645.97;2075294;28;20370;-54
2022/10/29 04:44:22;;;;;;;3.35;2.35;;;;;;;21.97;64.07;99642.44;2075757;28;20055;-47
2022/10/29 04:45:23;;;;;;;3.92;2.38;;;;;;;21.98;64.07;99642.25;2076865;28;20049;-47
2022/10/29 04:46:25;;;;;;;2.42;2.13;;;;;;;21.97;64.34;99640.56;2075303;28;20053;-51
2022/10/29 04:47:25;;;;;;;2.53;2.25;;;;;;;21.98;64.29;99644.97;2075518;28;20056;-56
2022/10/29 04:48:28;;;;;;;3.85;2.78;;;;;;;21.99;64.04;99643.91;2075695;28;20056;-52
2022/10/29 04:49:29;;;;;;;4.07;2.90;;;;;;;21.96;64.40;99638.91;2075680;28;20056;-52
2022/10/29 04:50:32;;;;;;;3.60;2.65;;;;;;;21.96;64.01;99636.22;2075817;28;20053;-54
2022/10/29 04:51:33;;;;;;;2.47;2.28;;;;;;;21.95;63.99;99637.22;2074123;28;20053;-51
2022/10/29 04:52:36;;;;;;;2.70;2.30;;;;;;;21.95;64.27;99631.81;2075094;28;20049;-53
2022/10/29 04:53:39;;;;;;;7.60;2.55;;;;;;;21.94;64.11;99635.56;2076140;28;20049;-55
2022/10/29 04:54:40;;;;;;;4.00;2.70;;;;;;;21.93;64.05;99631.22;2074955;28;20050;-54
2022/10/29 04:55:42;;;;;;;3.88;2.95;;;;;;;21.95;64.07;99637.22;2075187;28;20746;-49
2022/10/29 04:56:44;;;;;;;2.97;2.20;;;;;;;21.95;64.22;99631.00;2076044;28;20111;-56
2022/10/29 04:57:48;;;;;;;4.72;2.58;;;;;;;21.96;64.02;99636.22;2076232;28;20049;-55
2022/10/29 04:58:51;;;;;;;4.63;2.70;;;;;;;21.96;63.98;99627.28;2075292;28;20718;-52
2022/10/29 04:59:52;;;;;;;4.90;2.60;;;;;;;21.95;64.15;99631.81;2075879;28;20049;-50